sensor_id;sensor_type;location;lat;lon;timestamp;pressure;altitude;pressure_sealevel;temperature;humidity
38614;BME280;24369;49.480;8.488;2022-08-19T00:00:44;99883.06;;;31.62;28.06
38614;BME280;24369;49.480;8.488;2022-08-19T00:03:09;100072.06;;;32.97;27.56
38614;BME280;24369;49.480;8.488;2022-08-19T00:05:35;100002.38;;;32.65;27.58
38614;BME280;24369;49.480;8.488;2022-08-19T00:08:43;99815.59;;;31.38;27.98
38614;BME280;24369;49.480;8.488;2022-08-19T00:11:10;99788.94;;;31.35;27.80
38614;BME280;24369;49.480;8.488;2022-08-19T00:13:36;99791.94;;;31.33;28.11
38614;BME280;24369;49.480;8.488;2022-08-19T00:16:02;100064.13;;;32.90;28.08
38614;BME280;24369;49.480;8.488;2022-08-19T00:18:28;100109.53;;;33.31;27.74
38614;BME280;24369;49.480;8.488;2022-08-19T00:20:53;99904.69;;;32.18;28.02
38614;BME280;24369;49.480;8.488;2022-08-19T00:23:18;100020.44;;;33.06;27.77
38614;BME280;24369;49.480;8.488;2022-08-19T00:25:45;99828.56;;;31.77;27.99
38614;BME280;24369;49.480;8.488;2022-08-19T00:28:10;99898.97;;;32.14;27.91
38614;BME280;24369;49.480;8.488;2022-08-19T00:33:11;99863.41;;;31.75;28.44
38614;BME280;24369;49.480;8.488;2022-08-19T00:35:38;99957.47;;;32.37;27.90
38614;BME280;24369;49.480;8.488;2022-08-19T00:38:04;99633.56;;;30.41;28.21
38614;BME280;24369;49.480;8.488;2022-08-19T00:40:32;100077.63;;;33.21;27.96
38614;BME280;24369;49.480;8.488;2022-08-19T00:42:57;100084.22;;;33.20;28.15
38614;BME280;24369;49.480;8.488;2022-08-19T00:45:26;100073.59;;;33.13;28.14
38614;BME280;24369;49.480;8.488;2022-08-19T00:47:52;99872.09;;;31.97;28.08
38614;BME280;24369;49.480;8.488;2022-08-19T00:50:19;99989.97;;;32.83;27.96
38614;BME280;24369;49.480;8.488;2022-08-19T00:52:49;99956.88;;;32.50;28.23
38614;BME280;24369;49.480;8.488;2022-08-19T00:56:38;99928.38;;;32.22;28.00
38614;BME280;24369;49.480;8.488;2022-08-19T00:59:05;100034.16;;;32.85;27.93
38614;BME280;24369;49.480;8.488;2022-08-19T01:01:42;99917.66;;;32.36;28.20
38614;BME280;24369;49.480;8.488;2022-08-19T01:04:08;100062.75;;;33.03;28.32
38614;BME280;24369;49.480;8.488;2022-08-19T01:06:35;100074.72;;;33.12;27.97
38614;BME280;24369;49.480;8.488;2022-08-19T01:09:02;99971.75;;;32.09;28.23
38614;BME280;24369;49.480;8.488;2022-08-19T01:11:30;99972.19;;;32.36;28.19
38614;BME280;24369;49.480;8.488;2022-08-19T01:13:55;100075.47;;;33.18;28.12
38614;BME280;24369;49.480;8.488;2022-08-19T01:16:22;100061.25;;;33.21;28.29
38614;BME280;24369;49.480;8.488;2022-08-19T01:20:22;99975.06;;;31.85;29.76
38614;BME280;24369;49.480;8.488;2022-08-19T01:22:58;99834.31;;;31.70;28.24
38614;BME280;24369;49.480;8.488;2022-08-19T01:25:48;100061.38;;;33.45;27.95
38614;BME280;24369;49.480;8.488;2022-08-19T01:28:24;100074.84;;;33.31;27.91
38614;BME280;24369;49.480;8.488;2022-08-19T01:30:54;99784.31;;;31.30;27.84
38614;BME280;24369;49.480;8.488;2022-08-19T01:33:20;100051.91;;;32.78;28.03
38614;BME280;24369;49.480;8.488;2022-08-19T01:35:46;99969.19;;;32.48;28.19
38614;BME280;24369;49.480;8.488;2022-08-19T01:38:22;99887.31;;;31.98;28.22
38614;BME280;24369;49.480;8.488;2022-08-19T01:40:48;99908.81;;;32.10;28.01
38614;BME280;24369;49.480;8.488;2022-08-19T01:44:45;99958.69;;;32.11;28.33
38614;BME280;24369;49.480;8.488;2022-08-19T01:47:11;99831.31;;;31.62;28.26
38614;BME280;24369;49.480;8.488;2022-08-19T01:49:37;100021.75;;;32.59;28.49
38614;BME280;24369;49.480;8.488;2022-08-19T01:52:04;99809.91;;;31.29;28.25
38614;BME280;24369;49.480;8.488;2022-08-19T01:54:29;100073.69;;;32.93;28.27
38614;BME280;24369;49.480;8.488;2022-08-19T01:57:02;99722.13;;;30.83;28.34
38614;BME280;24369;49.480;8.488;2022-08-19T01:59:29;100066.84;;;33.06;28.32
38614;BME280;24369;49.480;8.488;2022-08-19T02:01:55;99877.03;;;31.80;28.09
38614;BME280;24369;49.480;8.488;2022-08-19T02:04:20;100064.75;;;32.77;28.37
38614;BME280;24369;49.480;8.488;2022-08-19T02:08:27;100002.38;;;32.65;28.16
38614;BME280;24369;49.480;8.488;2022-08-19T02:10:53;99964.59;;;32.28;27.90
38614;BME280;24369;49.480;8.488;2022-08-19T02:13:19;99989.03;;;32.54;28.12
38614;BME280;24369;49.480;8.488;2022-08-19T02:15:44;99919.47;;;31.96;28.00
38614;BME280;24369;49.480;8.488;2022-08-19T02:18:10;99835.50;;;31.39;28.40
38614;BME280;24369;49.480;8.488;2022-08-19T02:20:37;99953.25;;;32.00;28.13
38614;BME280;24369;49.480;8.488;2022-08-19T02:23:03;100072.31;;;33.01;28.02
38614;BME280;24369;49.480;8.488;2022-08-19T02:25:29;100003.84;;;32.32;28.13
38614;BME280;24369;49.480;8.488;2022-08-19T02:27:54;99769.97;;;30.99;28.33
38614;BME280;24369;49.480;8.488;2022-08-19T02:33:08;100079.56;;;32.56;28.13
38614;BME280;24369;49.480;8.488;2022-08-19T02:35:33;100095.50;;;32.93;28.34
38614;BME280;24369;49.480;8.488;2022-08-19T02:37:59;99997.59;;;32.21;28.34
38614;BME280;24369;49.480;8.488;2022-08-19T02:40:51;99995.97;;;32.20;28.55
38614;BME280;24369;49.480;8.488;2022-08-19T02:43:18;99917.34;;;31.68;28.47
38614;BME280;24369;49.480;8.488;2022-08-19T02:45:46;99915.72;;;31.67;28.66
38614;BME280;24369;49.480;8.488;2022-08-19T02:48:14;99975.84;;;32.11;28.72
38614;BME280;24369;49.480;8.488;2022-08-19T02:50:42;99956.00;;;31.95;28.35
38614;BME280;24369;49.480;8.488;2022-08-19T02:53:08;99802.06;;;30.87;28.48
38614;BME280;24369;49.480;8.488;2022-08-19T02:57:10;99971.50;;;32.05;28.73
38614;BME280;24369;49.480;8.488;2022-08-19T02:59:35;99945.69;;;31.87;28.43
38614;BME280;24369;49.480;8.488;2022-08-19T03:02:01;99978.84;;;32.04;28.61
38614;BME280;24369;49.480;8.488;2022-08-19T03:04:26;99894.78;;;31.52;28.49
38614;BME280;24369;49.480;8.488;2022-08-19T03:06:52;100100.72;;;32.84;28.21
38614;BME280;24369;49.480;8.488;2022-08-19T03:09:19;99993.53;;;32.19;28.49
38614;BME280;24369;49.480;8.488;2022-08-19T03:11:45;100026.16;;;32.39;28.40
38614;BME280;24369;49.480;8.488;2022-08-19T03:14:12;100077.31;;;32.78;28.68
38614;BME280;24369;49.480;8.488;2022-08-19T03:16:46;100077.28;;;32.83;28.46
38614;BME280;24369;49.480;8.488;2022-08-19T03:21:24;100008.72;;;32.35;28.70
38614;BME280;24369;49.480;8.488;2022-08-19T03:23:53;100078.13;;;32.79;28.68
38614;BME280;24369;49.480;8.488;2022-08-19T03:26:18;99979.69;;;32.00;28.79
38614;BME280;24369;49.480;8.488;2022-08-19T03:28:44;100065.44;;;32.48;28.73
38614;BME280;24369;49.480;8.488;2022-08-19T03:31:16;100016.66;;;32.26;28.90
38614;BME280;24369;49.480;8.488;2022-08-19T03:33:41;100089.59;;;32.70;28.84
38614;BME280;24369;49.480;8.488;2022-08-19T03:36:08;100088.53;;;32.71;28.76
38614;BME280;24369;49.480;8.488;2022-08-19T03:38:39;99936.69;;;31.61;28.65
38614;BME280;24369;49.480;8.488;2022-08-19T03:41:08;99751.47;;;30.55;28.89
38614;BME280;24369;49.480;8.488;2022-08-19T03:45:41;99981.06;;;31.97;28.84
38614;BME280;24369;49.480;8.488;2022-08-19T03:48:07;99818.38;;;30.97;28.82
38614;BME280;24369;49.480;8.488;2022-08-19T03:50:38;100042.53;;;32.29;28.83
38614;BME280;24369;49.480;8.488;2022-08-19T03:53:04;100086.09;;;32.65;28.68
38614;BME280;24369;49.480;8.488;2022-08-19T03:55:29;100019.94;;;32.23;28.48
38614;BME280;24369;49.480;8.488;2022-08-19T03:57:55;100101.34;;;32.61;28.76
38614;BME280;24369;49.480;8.488;2022-08-19T04:00:21;100017.25;;;32.08;28.75
38614;BME280;24369;49.480;8.488;2022-08-19T04:02:46;99873.06;;;31.06;28.82
38614;BME280;24369;49.480;8.488;2022-08-19T04:05:12;100126.47;;;32.68;28.45
38614;BME280;24369;49.480;8.488;2022-08-19T04:10:18;99907.59;;;31.21;28.69
38614;BME280;24369;49.480;8.488;2022-08-19T04:12:44;100015.91;;;31.85;28.94
38614;BME280;24369;49.480;8.488;2022-08-19T04:15:10;100073.34;;;32.30;28.53
38614;BME280;24369;49.480;8.488;2022-08-19T04:17:35;100012.69;;;31.93;28.51
38614;BME280;24369;49.480;8.488;2022-08-19T04:20:00;100077.44;;;32.42;28.74
38614;BME280;24369;49.480;8.488;2022-08-19T04:22:26;99946.25;;;31.64;28.88
38614;BME280;24369;49.480;8.488;2022-08-19T04:24:51;100097.53;;;32.67;28.64
38614;BME280;24369;49.480;8.488;2022-08-19T04:27:16;99908.69;;;31.35;28.41
38614;BME280;24369;49.480;8.488;2022-08-19T04:29:44;100099.72;;;32.65;28.67
38614;BME280;24369;49.480;8.488;2022-08-19T04:34:43;99784.66;;;30.57;28.76
38614;BME280;24369;49.480;8.488;2022-08-19T04:37:08;100098.06;;;32.64;28.63
38614;BME280;24369;49.480;8.488;2022-08-19T04:39:37;100094.84;;;32.62;28.65
38614;BME280;24369;49.480;8.488;2022-08-19T04:42:21;99977.31;;;31.52;29.01
38614;BME280;24369;49.480;8.488;2022-08-19T04:45:07;100098.38;;;32.57;28.71
38614;BME280;24369;49.480;8.488;2022-08-19T04:47:35;100063.28;;;32.20;28.85
38614;BME280;24369;49.480;8.488;2022-08-19T04:50:02;100002.88;;;31.77;28.35
38614;BME280;24369;49.480;8.488;2022-08-19T04:52:28;100027.91;;;32.04;28.86
38614;BME280;24369;49.480;8.488;2022-08-19T04:54:53;100027.28;;;32.23;28.62
38614;BME280;24369;49.480;8.488;2022-08-19T04:58:26;100015.91;;;32.06;28.48
38614;BME280;24369;49.480;8.488;2022-08-19T05:00:52;100094.31;;;32.49;28.57
38614;BME280;24369;49.480;8.488;2022-08-19T05:03:18;100081.31;;;32.11;28.52
38614;BME280;24369;49.480;8.488;2022-08-19T05:05:45;100128.66;;;32.50;28.65
38614;BME280;24369;49.480;8.488;2022-08-19T05:08:15;100098.38;;;32.57;28.45
38614;BME280;24369;49.480;8.488;2022-08-19T05:10:50;99839.06;;;30.93;28.73
38614;BME280;24369;49.480;8.488;2022-08-19T05:13:17;99892.34;;;31.15;28.78
38614;BME280;24369;49.480;8.488;2022-08-19T05:15:43;100026.00;;;32.10;28.80
38614;BME280;24369;49.480;8.488;2022-08-19T05:18:09;99937.00;;;31.34;28.84
38614;BME280;24369;49.480;8.488;2022-08-19T05:22:36;100063.31;;;32.04;28.79
38614;BME280;24369;49.480;8.488;2022-08-19T05:25:09;99923.41;;;31.34;28.88
38614;BME280;24369;49.480;8.488;2022-08-19T05:27:35;100136.59;;;32.47;29.19
38614;BME280;24369;49.480;8.488;2022-08-19T05:30:00;100056.47;;;32.27;28.90
38614;BME280;24369;49.480;8.488;2022-08-19T05:32:27;99933.19;;;31.45;28.91
38614;BME280;24369;49.480;8.488;2022-08-19T05:34:53;100053.75;;;32.22;29.05
38614;BME280;24369;49.480;8.488;2022-08-19T05:37:19;100124.75;;;32.77;28.89
38614;BME280;24369;49.480;8.488;2022-08-19T05:39:44;99940.28;;;31.46;28.50
38614;BME280;24369;49.480;8.488;2022-08-19T05:42:11;100084.50;;;32.38;28.83
38614;BME280;24369;49.480;8.488;2022-08-19T05:46:48;100144.38;;;32.84;28.67
38614;BME280;24369;49.480;8.488;2022-08-19T05:49:15;99949.50;;;31.61;28.69
38614;BME280;24369;49.480;8.488;2022-08-19T05:51:41;100092.09;;;32.57;28.29
38614;BME280;24369;49.480;8.488;2022-08-19T05:54:08;99984.06;;;31.65;28.80
38614;BME280;24369;49.480;8.488;2022-08-19T05:56:34;100015.41;;;31.93;28.42
38614;BME280;24369;49.480;8.488;2022-08-19T05:59:04;100067.38;;;32.27;28.07
38614;BME280;24369;49.480;8.488;2022-08-19T06:01:33;100173.78;;;33.08;28.43
38614;BME280;24369;49.480;8.488;2022-08-19T06:03:59;100187.97;;;33.10;28.41
38614;BME280;24369;49.480;8.488;2022-08-19T06:08:57;100126.53;;;32.47;28.24
38614;BME280;24369;49.480;8.488;2022-08-19T06:11:32;100096.22;;;32.39;28.40
38614;BME280;24369;49.480;8.488;2022-08-19T06:14:01;100131.34;;;32.61;28.32
38614;BME280;24369;49.480;8.488;2022-08-19T06:16:27;100092.16;;;32.26;28.44
38614;BME280;24369;49.480;8.488;2022-08-19T06:18:54;100207.13;;;33.00;28.44
38614;BME280;24369;49.480;8.488;2022-08-19T06:21:23;99827.06;;;30.48;28.80
38614;BME280;24369;49.480;8.488;2022-08-19T06:23:49;99862.41;;;30.69;28.71
38614;BME280;24369;49.480;8.488;2022-08-19T06:26:16;100203.56;;;32.94;28.40
38614;BME280;24369;49.480;8.488;2022-08-19T06:28:42;100211.47;;;33.01;28.63
38614;BME280;24369;49.480;8.488;2022-08-19T06:33:23;100149.69;;;32.45;28.37
38614;BME280;24369;49.480;8.488;2022-08-19T06:35:49;99953.84;;;31.31;28.72
38614;BME280;24369;49.480;8.488;2022-08-19T06:38:14;100095.16;;;32.35;28.39
38614;BME280;24369;49.480;8.488;2022-08-19T06:40:40;100019.22;;;31.77;28.40
38614;BME280;24369;49.480;8.488;2022-08-19T06:43:05;100019.75;;;31.84;28.45
38614;BME280;24369;49.480;8.488;2022-08-19T06:45:30;100156.66;;;32.92;28.22
38614;BME280;24369;49.480;8.488;2022-08-19T06:47:56;100157.72;;;32.91;28.33
38614;BME280;24369;49.480;8.488;2022-08-19T06:50:24;100241.13;;;33.33;28.38
38614;BME280;24369;49.480;8.488;2022-08-19T06:52:50;100000.41;;;31.75;28.11
38614;BME280;24369;49.480;8.488;2022-08-19T06:57:50;100169.44;;;32.91;28.08
38614;BME280;24369;49.480;8.488;2022-08-19T07:00:18;100168.09;;;32.94;27.79
38614;BME280;24369;49.480;8.488;2022-08-19T07:02:43;100155.41;;;32.48;27.83
38614;BME280;24369;49.480;8.488;2022-08-19T07:05:09;100020.28;;;31.91;28.36
38614;BME280;24369;49.480;8.488;2022-08-19T07:07:35;100150.22;;;32.52;28.27
38614;BME280;24369;49.480;8.488;2022-08-19T07:10:01;100273.03;;;33.37;28.07
38614;BME280;24369;49.480;8.488;2022-08-19T07:12:29;100236.53;;;33.23;27.90
38614;BME280;24369;49.480;8.488;2022-08-19T07:14:58;100169.44;;;32.91;28.21
38614;BME280;24369;49.480;8.488;2022-08-19T07:17:23;100151.50;;;32.80;27.95
38614;BME280;24369;49.480;8.488;2022-08-19T07:21:35;100101.81;;;32.99;27.90
38614;BME280;24369;49.480;8.488;2022-08-19T07:24:00;100030.13;;;32.72;27.44
38614;BME280;24369;49.480;8.488;2022-08-19T07:26:32;100156.75;;;33.36;27.78
38614;BME280;24369;49.480;8.488;2022-08-19T07:28:58;100163.53;;;33.39;27.46
38614;BME280;24369;49.480;8.488;2022-08-19T07:31:26;100219.75;;;33.95;27.68
38614;BME280;24369;49.480;8.488;2022-08-19T07:33:54;100223.47;;;34.14;27.42
38614;BME280;24369;49.480;8.488;2022-08-19T07:36:26;100179.13;;;33.83;27.41
38614;BME280;24369;49.480;8.488;2022-08-19T07:38:57;100016.88;;;33.50;26.84
38614;BME280;24369;49.480;8.488;2022-08-19T07:44:01;100162.44;;;34.48;26.15
38614;BME280;24369;49.480;8.488;2022-08-19T07:46:31;100239.88;;;34.77;26.18
38614;BME280;24369;49.480;8.488;2022-08-19T07:48:57;100242.81;;;34.57;26.42
38614;BME280;24369;49.480;8.488;2022-08-19T07:51:22;100188.78;;;34.09;26.42
38614;BME280;24369;49.480;8.488;2022-08-19T07:53:50;100079.25;;;33.27;26.23
38614;BME280;24369;49.480;8.488;2022-08-19T07:56:18;100182.41;;;34.19;26.34
38614;BME280;24369;49.480;8.488;2022-08-19T07:58:45;100224.56;;;34.76;26.33
38614;BME280;24369;49.480;8.488;2022-08-19T08:01:14;100216.41;;;34.71;26.41
38614;BME280;24369;49.480;8.488;2022-08-19T08:03:40;100162.63;;;34.27;26.54
38614;BME280;24369;49.480;8.488;2022-08-19T08:08:27;100180.69;;;34.28;26.53
38614;BME280;24369;49.480;8.488;2022-08-19T08:11:11;100160.75;;;34.57;25.86
38614;BME280;24369;49.480;8.488;2022-08-19T08:13:37;100109.72;;;34.18;25.90
38614;BME280;24369;49.480;8.488;2022-08-19T08:16:03;100166.06;;;34.72;25.92
38614;BME280;24369;49.480;8.488;2022-08-19T08:18:28;99984.38;;;33.43;26.06
38614;BME280;24369;49.480;8.488;2022-08-19T08:20:55;100210.03;;;35.05;26.08
38614;BME280;24369;49.480;8.488;2022-08-19T08:23:22;100205.94;;;35.26;25.91
38614;BME280;24369;49.480;8.488;2022-08-19T08:25:48;99922.50;;;33.62;25.44
38614;BME280;24369;49.480;8.488;2022-08-19T08:30:55;100142.22;;;34.97;25.25
38614;BME280;24369;49.480;8.488;2022-08-19T08:33:23;100180.63;;;35.35;24.98
38614;BME280;24369;49.480;8.488;2022-08-19T08:35:48;100219.00;;;36.10;24.67
38614;BME280;24369;49.480;8.488;2022-08-19T08:38:14;100223.25;;;36.95;23.67
38614;BME280;24369;49.480;8.488;2022-08-19T08:40:50;100245.03;;;37.20;23.21
38614;BME280;24369;49.480;8.488;2022-08-19T08:46:24;100226.34;;;37.72;22.80
38614;BME280;24369;49.480;8.488;2022-08-19T08:48:57;100100.44;;;37.01;21.82
38614;BME280;24369;49.480;8.488;2022-08-19T08:51:36;100212.50;;;38.75;21.36
38614;BME280;24369;49.480;8.488;2022-08-19T08:55:51;100063.34;;;39.86;19.19
38614;BME280;24369;49.480;8.488;2022-08-19T08:58:28;100233.31;;;40.43;19.15
38614;BME280;24369;49.480;8.488;2022-08-19T09:00:55;100067.94;;;41.09;17.67
38614;BME280;24369;49.480;8.488;2022-08-19T09:03:25;100234.50;;;42.23;17.34
38614;BME280;24369;49.480;8.488;2022-08-19T09:14:48;100221.78;;;42.43;17.22
38614;BME280;24369;49.480;8.488;2022-08-19T09:18:18;100225.31;;;41.77;17.39
38614;BME280;24369;49.480;8.488;2022-08-19T09:20:47;100066.00;;;40.12;17.86
38614;BME280;24369;49.480;8.488;2022-08-19T09:23:13;100203.72;;;40.52;18.02
38614;BME280;24369;49.480;8.488;2022-08-19T09:25:38;100246.31;;;40.25;18.40
38614;BME280;24369;49.480;8.488;2022-08-19T09:28:05;100152.97;;;38.88;19.54
38614;BME280;24369;49.480;8.488;2022-08-19T09:30:38;100214.94;;;38.77;20.21
38614;BME280;24369;49.480;8.488;2022-08-19T09:33:04;100226.63;;;38.51;20.35
38614;BME280;24369;49.480;8.488;2022-08-19T09:35:30;100224.00;;;38.24;20.54
38614;BME280;24369;49.480;8.488;2022-08-19T09:37:57;100121.88;;;37.49;20.88
38614;BME280;24369;49.480;8.488;2022-08-19T09:41:44;100225.00;;;37.83;21.28
38614;BME280;24369;49.480;8.488;2022-08-19T09:44:09;100222.41;;;37.64;21.64
38614;BME280;24369;49.480;8.488;2022-08-19T09:46:37;100244.22;;;37.33;22.16
38614;BME280;24369;49.480;8.488;2022-08-19T09:49:02;100168.44;;;36.49;22.72
38614;BME280;24369;49.480;8.488;2022-08-19T09:51:29;100222.00;;;36.60;22.67
38614;BME280;24369;49.480;8.488;2022-08-19T09:53:59;100198.84;;;36.53;22.73
38614;BME280;24369;49.480;8.488;2022-08-19T09:56:24;99931.31;;;35.07;22.47
38614;BME280;24369;49.480;8.488;2022-08-19T09:58:50;100014.09;;;35.37;22.84
38614;BME280;24369;49.480;8.488;2022-08-19T10:01:26;99982.59;;;35.53;22.80
38614;BME280;24369;49.480;8.488;2022-08-19T10:03:55;100014.31;;;35.21;22.94
38614;BME280;24369;49.480;8.488;2022-08-19T10:09:00;100199.13;;;36.18;22.95
38614;BME280;24369;49.480;8.488;2022-08-19T10:11:26;100033.47;;;35.21;23.10
38614;BME280;24369;49.480;8.488;2022-08-19T10:13:51;99971.25;;;35.08;22.84
38614;BME280;24369;49.480;8.488;2022-08-19T10:16:19;99968.78;;;35.25;22.94
38614;BME280;24369;49.480;8.488;2022-08-19T10:18:47;100168.13;;;36.64;22.96
38614;BME280;24369;49.480;8.488;2022-08-19T10:21:22;100161.41;;;36.43;23.00
38614;BME280;24369;49.480;8.488;2022-08-19T10:23:51;100062.66;;;35.96;22.21
38614;BME280;24369;49.480;8.488;2022-08-19T10:26:20;100127.28;;;36.49;22.45
38614;BME280;24369;49.480;8.488;2022-08-19T10:28:46;100173.22;;;36.85;22.49
38614;BME280;24369;49.480;8.488;2022-08-19T10:33:57;100010.38;;;35.27;22.91
38614;BME280;24369;49.480;8.488;2022-08-19T10:36:28;100221.41;;;36.31;23.18
38614;BME280;24369;49.480;8.488;2022-08-19T10:38:56;100144.06;;;36.01;22.85
38614;BME280;24369;49.480;8.488;2022-08-19T10:41:27;100088.34;;;35.54;23.40
38614;BME280;24369;49.480;8.488;2022-08-19T10:43:55;100164.50;;;36.22;23.35
38614;BME280;24369;49.480;8.488;2022-08-19T10:46:23;100121.28;;;36.00;22.92
38614;BME280;24369;49.480;8.488;2022-08-19T10:48:49;100231.03;;;37.07;22.61
38614;BME280;24369;49.480;8.488;2022-08-19T10:51:15;100242.69;;;36.99;22.45
38614;BME280;24369;49.480;8.488;2022-08-19T10:54:00;100220.81;;;36.80;22.95
38614;BME280;24369;49.480;8.488;2022-08-19T10:59:16;100188.91;;;36.98;22.32
38614;BME280;24369;49.480;8.488;2022-08-19T11:01:43;100198.69;;;37.04;22.34
38614;BME280;24369;49.480;8.488;2022-08-19T11:04:09;100033.84;;;35.99;22.26
38614;BME280;24369;49.480;8.488;2022-08-19T11:06:41;99963.00;;;35.60;22.32
38614;BME280;24369;49.480;8.488;2022-08-19T11:09:09;100154.34;;;36.56;22.04
38614;BME280;24369;49.480;8.488;2022-08-19T11:11:35;100189.50;;;36.95;22.21
38614;BME280;24369;49.480;8.488;2022-08-19T11:14:06;100014.69;;;35.80;22.58
38614;BME280;24369;49.480;8.488;2022-08-19T11:16:31;99930.22;;;35.22;22.26
38614;BME280;24369;49.480;8.488;2022-08-19T11:18:58;100081.72;;;36.48;21.65
38614;BME280;24369;49.480;8.488;2022-08-19T11:23:42;100090.19;;;36.79;21.84
38614;BME280;24369;49.480;8.488;2022-08-19T11:26:08;100116.31;;;36.77;21.55
38614;BME280;24369;49.480;8.488;2022-08-19T11:28:34;100091.09;;;36.75;21.74
38614;BME280;24369;49.480;8.488;2022-08-19T11:31:00;100084.56;;;36.84;21.20
38614;BME280;24369;49.480;8.488;2022-08-19T11:33:26;100146.38;;;36.82;21.65
38614;BME280;24369;49.480;8.488;2022-08-19T11:35:52;100142.13;;;36.89;20.82
38614;BME280;24369;49.480;8.488;2022-08-19T11:38:18;100072.59;;;36.66;21.07
38614;BME280;24369;49.480;8.488;2022-08-19T11:40:43;99980.81;;;35.90;21.09
38614;BME280;24369;49.480;8.488;2022-08-19T11:43:09;100141.50;;;37.42;20.52
38614;BME280;24369;49.480;8.488;2022-08-19T11:45:35;100142.25;;;37.48;20.84
38614;BME280;24369;49.480;8.488;2022-08-19T11:49:53;99883.34;;;35.84;21.02
38614;BME280;24369;49.480;8.488;2022-08-19T11:52:19;100131.25;;;36.98;21.46
38614;BME280;24369;49.480;8.488;2022-08-19T11:54:44;99993.13;;;36.20;21.32
38614;BME280;24369;49.480;8.488;2022-08-19T11:57:10;100038.38;;;36.50;21.00
38614;BME280;24369;49.480;8.488;2022-08-19T11:59:35;100109.28;;;36.98;21.34
38614;BME280;24369;49.480;8.488;2022-08-19T12:02:00;100027.69;;;36.35;20.68
38614;BME280;24369;49.480;8.488;2022-08-19T12:04:26;99893.53;;;35.23;20.52
38614;BME280;24369;49.480;8.488;2022-08-19T12:06:51;100117.09;;;36.36;20.71
38614;BME280;24369;49.480;8.488;2022-08-19T12:09:16;100155.13;;;37.11;20.50
38614;BME280;24369;49.480;8.488;2022-08-19T12:14:08;99896.59;;;35.49;20.35
38614;BME280;24369;49.480;8.488;2022-08-19T12:16:34;100147.47;;;37.22;19.76
38614;BME280;24369;49.480;8.488;2022-08-19T12:19:00;100169.38;;;37.13;19.65
38614;BME280;24369;49.480;8.488;2022-08-19T12:21:30;100113.31;;;37.14;19.34
38614;BME280;24369;49.480;8.488;2022-08-19T12:23:57;100142.25;;;37.48;19.57
38614;BME280;24369;49.480;8.488;2022-08-19T12:26:24;100144.72;;;37.22;19.70
38614;BME280;24369;49.480;8.488;2022-08-19T12:28:50;99985.81;;;36.57;19.29
38614;BME280;24369;49.480;8.488;2022-08-19T12:31:16;100154.63;;;37.59;19.25
38614;BME280;24369;49.480;8.488;2022-08-19T12:33:42;100006.44;;;36.40;19.05
38614;BME280;24369;49.480;8.488;2022-08-19T12:36:10;100147.59;;;37.17;19.30
38614;BME280;24369;49.480;8.488;2022-08-19T12:40:01;100122.28;;;36.79;18.78
38614;BME280;24369;49.480;8.488;2022-08-19T12:42:28;99995.25;;;36.37;19.06
38614;BME280;24369;49.480;8.488;2022-08-19T12:44:55;100121.13;;;37.21;18.69
38614;BME280;24369;49.480;8.488;2022-08-19T12:47:21;100145.50;;;37.50;18.72
38614;BME280;24369;49.480;8.488;2022-08-19T12:49:48;99903.06;;;35.86;18.67
38614;BME280;24369;49.480;8.488;2022-08-19T12:52:14;99918.78;;;35.80;18.59
38614;BME280;24369;49.480;8.488;2022-08-19T12:54:41;100104.94;;;36.69;18.90
38614;BME280;24369;49.480;8.488;2022-08-19T12:57:09;100150.44;;;37.12;18.31
38614;BME280;24369;49.480;8.488;2022-08-19T12:59:36;100183.09;;;37.63;18.26
38614;BME280;24369;49.480;8.488;2022-08-19T13:05:27;99961.19;;;35.55;19.42
38614;BME280;24369;49.480;8.488;2022-08-19T13:07:54;100095.50;;;37.12;18.52
38614;BME280;24369;49.480;8.488;2022-08-19T13:10:23;100158.94;;;37.38;17.87
38614;BME280;24369;49.480;8.488;2022-08-19T13:12:51;100128.06;;;37.18;17.82
38614;BME280;24369;49.480;8.488;2022-08-19T13:15:18;100174.22;;;37.67;17.53
38614;BME280;24369;49.480;8.488;2022-08-19T13:17:49;100157.94;;;37.70;17.60
38614;BME280;24369;49.480;8.488;2022-08-19T13:20:17;100129.94;;;37.46;17.42
38614;BME280;24369;49.480;8.488;2022-08-19T13:22:42;99980.63;;;36.69;17.86
38614;BME280;24369;49.480;8.488;2022-08-19T13:25:10;100210.88;;;37.76;17.35
38614;BME280;24369;49.480;8.488;2022-08-19T13:28:53;99948.44;;;35.92;17.80
38614;BME280;24369;49.480;8.488;2022-08-19T13:31:39;100114.78;;;37.48;17.60
38614;BME280;24369;49.480;8.488;2022-08-19T13:34:33;100111.56;;;37.18;17.96
38614;BME280;24369;49.480;8.488;2022-08-19T13:37:00;100002.25;;;36.70;17.51
38614;BME280;24369;49.480;8.488;2022-08-19T13:39:28;100076.28;;;37.48;17.54
38614;BME280;24369;49.480;8.488;2022-08-19T13:41:54;100088.50;;;37.42;17.16
38614;BME280;24369;49.480;8.488;2022-08-19T13:44:20;100079.22;;;37.74;17.24
38614;BME280;24369;49.480;8.488;2022-08-19T13:46:46;99941.13;;;36.79;17.23
38614;BME280;24369;49.480;8.488;2022-08-19T13:49:13;100109.94;;;37.76;17.59
38614;BME280;24369;49.480;8.488;2022-08-19T13:53:01;100128.53;;;38.24;16.80
38614;BME280;24369;49.480;8.488;2022-08-19T13:55:27;100078.19;;;38.15;16.72
38614;BME280;24369;49.480;8.488;2022-08-19T13:57:55;99896.03;;;36.93;16.87
38614;BME280;24369;49.480;8.488;2022-08-19T14:00:23;100118.81;;;38.18;16.62
38614;BME280;24369;49.480;8.488;2022-08-19T14:02:51;100119.00;;;37.77;17.04
38614;BME280;24369;49.480;8.488;2022-08-19T14:05:18;99864.66;;;36.13;17.47
38614;BME280;24369;49.480;8.488;2022-08-19T14:07:43;99894.91;;;36.72;17.04
38614;BME280;24369;49.480;8.488;2022-08-19T14:10:11;100002.97;;;37.35;17.04
38614;BME280;24369;49.480;8.488;2022-08-19T14:12:37;99999.06;;;37.36;16.90
38614;BME280;24369;49.480;8.488;2022-08-19T14:17:12;99995.34;;;37.32;16.86
38614;BME280;24369;49.480;8.488;2022-08-19T14:19:37;100095.59;;;38.02;16.52